Kezdőlap
METAR-TAF:

METAR-TAF

Repülőterek :

Fairford, Anglia

földrajzi szélesség: 51-41N, földrajzi hosszúság: 001-47W, magasság: 87 m

Jelenlegi meteorológiai megfigyelések

A jelentés 13 perccel ezelõtt készült, 20:06 UTC
Nyugat-délnyugati szél 13 kt széllökések: 22 kt
Hőmérséklet 8°C
Páratartalom 87%
Légköri nyomás 1020 hPa
Látótávolság 10 km, vagy több
Kevés felhő 1700 lábon
Szórványos felhőzet 3900 lábon
Szakadozott felhőzet 7000 lábon

METAR: EGVA 222006Z AUTO 25013G22KT 9999 FEW017 SCT039 BKN070 08/06 A3013 RMK AO2 SLP208 $

Idő: 20:19 (20:19 UTC)


TAF: hiányzik

Meteorológiai megfigyelések és előrejelzések több, mint 4000 repülőtéren (METAR és TAF jelentéseket).

A térképen piros és sárga pontok jelzik az elérhető meteorológiai állomásokat.

Mozgassa az egeret a pont fölött, hogy megjelenjen az állomás neve.

Azután kattintson az időjárási megfigyelések és előrejelzések megtekintéséhez.

A térkép megváltoztatása: kattintson a fekete keresztel jelölt zöld gombra ráközelítéshez, a vonallal jelölt zöld gombra távolításhoz, vagy a zöld nyilakra a szomszédos térképek eléréséhez.


METAR-TAF: